Time;durP1;ratioP1;P1;durP2;ratioP2;P2;SDS_P1;SDS_P2;PMS_P1;PMS_P2;Temp;Humidity;BMP_temperature;BMP_pressure;BME280_temperature;BME280_humidity;BME280_pressure;Samples;Min_cycle;Max_cycle;Signal;HPM_P1;HPM_P2
2023/03/06 00:02:24;;;;;;;6.60;4.27;;;4.70;99.90;;;;;;5115845;28;20403;-68
2023/03/06 00:04:50;;;;;;;7.63;4.37;;;4.80;99.90;;;;;;5125997;27;20647;-68
2023/03/06 00:07:16;;;;;;;6.83;4.43;;;4.80;99.90;;;;;;5136136;27;20417;-67
2023/03/06 00:09:41;;;;;;;6.23;4.70;;;4.80;99.90;;;;;;5138927;27;20184;-68
2023/03/06 00:12:07;;;;;;;8.37;4.33;;;4.80;99.90;;;;;;5138557;27;20631;-69
2023/03/06 00:14:32;;;;;;;7.47;4.63;;;4.80;99.90;;;;;;5118348;28;20181;-68
2023/03/06 00:16:58;;;;;;;8.13;4.60;;;4.80;99.90;;;;;;5118155;27;20435;-69
2023/03/06 00:19:24;;;;;;;8.67;5.20;;;4.80;99.90;;;;;;5129882;27;20233;-68
2023/03/06 00:21:49;;;;;;;8.37;4.37;;;4.80;99.90;;;;;;5136003;27;20528;-68
2023/03/06 00:24:15;;;;;;;8.10;4.70;;;4.80;99.90;;;;;;5136069;27;20573;-69
2023/03/06 00:26:40;;;;;;;6.97;5.10;;;4.80;99.90;;;;;;5137644;27;20179;-69
2023/03/06 00:29:09;;;;;;;6.60;4.53;;;4.70;99.90;;;;;;5135827;27;20650;-68
2023/03/06 00:31:34;;;;;;;5.23;4.30;;;4.70;99.90;;;;;;5136037;27;20666;-68
2023/03/06 00:34:01;;;;;;;8.60;5.77;;;4.70;99.90;;;;;;5135864;27;20398;-68
2023/03/06 00:36:26;;;;;;;10.20;6.70;;;4.70;99.90;;;;;;5135911;27;20172;-69
2023/03/06 00:38:52;;;;;;;10.17;6.60;;;4.60;99.90;;;;;;5135533;27;20404;-69
2023/03/06 00:41:18;;;;;;;8.43;5.70;;;4.60;99.90;;;;;;5134493;27;20267;-69
2023/03/06 00:43:44;;;;;;;11.03;6.40;;;4.40;99.90;;;;;;5119459;27;20223;-68
2023/03/06 00:46:09;;;;;;;10.67;5.90;;;4.40;99.90;;;;;;5115075;28;20743;-68
2023/03/06 00:48:35;;;;;;;8.00;6.50;;;4.30;99.90;;;;;;5139055;27;20195;-68
2023/03/06 00:51:00;;;;;;;12.33;7.37;;;4.20;99.90;;;;;;5138110;27;20192;-68
2023/03/06 00:53:26;;;;;;;9.60;6.50;;;4.10;99.90;;;;;;5138710;27;20168;-68
2023/03/06 00:55:52;;;;;;;20.00;7.17;;;4.00;99.90;;;;;;5136612;27;20216;-68
2023/03/06 00:58:18;;;;;;;12.67;7.10;;;4.00;99.90;;;;;;5134969;27;20164;-68
2023/03/06 01:00:44;;;;;;;8.77;6.83;;;4.00;99.90;;;;;;5133864;27;20180;-68
2023/03/06 01:03:10;;;;;;;9.60;6.40;;;4.00;99.90;;;;;;5135208;27;20397;-68
2023/03/06 01:05:36;;;;;;;10.80;6.70;;;3.90;99.90;;;;;;5117217;27;20410;-68
2023/03/06 01:08:03;;;;;;;13.53;6.97;;;4.00;99.90;;;;;;5114358;28;20482;-68
2023/03/06 01:10:29;;;;;;;12.60;8.03;;;4.00;99.90;;;;;;5114237;27;20457;-68
2023/03/06 01:12:55;;;;;;;11.60;7.00;;;3.90;99.90;;;;;;5114306;28;20415;-68
2023/03/06 01:15:21;;;;;;;10.73;7.00;;;3.90;99.90;;;;;;5114533;28;20165;-68
2023/03/06 01:17:47;;;;;;;10.37;6.87;;;3.90;99.90;;;;;;5114183;28;20486;-68
2023/03/06 01:20:14;;;;;;;20.70;8.30;;;3.90;99.90;;;;;;5114452;28;20846;-68
2023/03/06 01:22:40;;;;;;;11.37;7.67;;;3.90;99.90;;;;;;5114368;28;20486;-68
2023/03/06 01:25:05;;;;;;;12.77;8.30;;;3.90;99.90;;;;;;5114265;28;20509;-68
2023/03/06 01:27:31;;;;;;;11.00;6.77;;;3.90;99.90;;;;;;5113970;28;20172;-68
2023/03/06 01:29:57;;;;;;;11.60;8.37;;;3.90;99.90;;;;;;5114051;28;20601;-68
2023/03/06 01:32:22;;;;;;;16.97;7.37;;;3.80;99.90;;;;;;5114168;28;20161;-68
2023/03/06 01:34:48;;;;;;;11.20;8.00;;;3.80;99.90;;;;;;5114603;28;20193;-68
2023/03/06 01:37:13;;;;;;;10.60;8.23;;;3.80;99.90;;;;;;5116819;28;20161;-69
2023/03/06 01:39:39;;;;;;;14.43;8.43;;;3.90;99.90;;;;;;5117051;28;20161;-68
2023/03/06 01:42:05;;;;;;;15.97;8.07;;;3.90;99.90;;;;;;5118165;27;20577;-69
2023/03/06 01:44:30;;;;;;;11.13;7.90;;;4.00;99.90;;;;;;5133940;27;20218;-68
2023/03/06 01:46:56;;;;;;;10.77;8.60;;;4.10;99.90;;;;;;5135045;27;20642;-69
2023/03/06 01:49:30;;;;;;;12.83;8.10;;;4.10;99.90;;;;;;5134334;27;20188;-68
2023/03/06 01:52:06;;;;;;;16.90;10.27;;;4.10;99.90;;;;;;5136126;27;20647;-68
2023/03/06 01:54:43;;;;;;;9.80;7.27;;;4.20;99.90;;;;;;5137190;27;20398;-68
2023/03/06 01:57:14;;;;;;;14.80;9.03;;;4.20;99.90;;;;;;5136856;27;20397;-68
2023/03/06 01:59:41;;;;;;;15.20;8.90;;;4.10;99.90;;;;;;5140476;27;20405;-68
2023/03/06 02:02:09;;;;;;;14.47;7.67;;;4.00;99.90;;;;;;5140262;27;21224;-68
2023/03/06 02:04:37;;;;;;;11.83;8.60;;;4.10;99.90;;;;;;5125939;27;20414;-68
2023/03/06 02:07:04;;;;;;;17.73;10.27;;;4.00;99.90;;;;;;5113196;28;20410;-68
2023/03/06 02:09:31;;;;;;;13.10;8.23;;;4.10;99.90;;;;;;5113221;28;20799;-68
2023/03/06 02:11:58;;;;;;;12.23;7.90;;;4.00;99.90;;;;;;5119131;27;20853;-69
2023/03/06 02:14:24;;;;;;;15.00;9.23;;;4.00;99.90;;;;;;5133765;27;20518;-68
2023/03/06 02:16:50;;;;;;;15.17;9.53;;;4.00;99.90;;;;;;5133660;27;20397;-67
2023/03/06 02:19:40;;;;;;;16.70;10.17;;;3.90;99.90;;;;;;5133707;27;20191;-69
2023/03/06 02:22:06;;;;;;;13.17;7.90;;;4.00;99.90;;;;;;5135102;27;20160;-68
2023/03/06 02:24:37;;;;;;;18.77;10.37;;;3.80;99.90;;;;;;5134721;27;20443;-68
2023/03/06 02:27:04;;;;;;;17.83;9.00;;;3.70;99.90;;;;;;5133399;27;20554;-68
2023/03/06 02:29:30;;;;;;;16.00;9.30;;;3.70;99.90;;;;;;5133749;27;20513;-68
2023/03/06 02:31:56;;;;;;;12.10;8.47;;;3.70;99.90;;;;;;5133457;27;20788;-68
2023/03/06 02:34:22;;;;;;;14.47;9.17;;;3.70;99.90;;;;;;5135662;27;20394;-70
2023/03/06 02:37:01;;;;;;;18.13;10.57;;;3.70;99.90;;;;;;5135985;27;20848;-67
2023/03/06 02:39:32;;;;;;;21.03;10.80;;;3.70;99.90;;;;;;5136299;27;20168;-68
2023/03/06 02:41:57;;;;;;;17.57;7.90;;;3.80;99.90;;;;;;5124647;27;20940;-68
2023/03/06 02:44:25;;;;;;;16.10;10.57;;;3.80;99.90;;;;;;5132137;27;20406;-68
2023/03/06 02:46:51;;;;;;;17.53;9.73;;;3.80;99.90;;;;;;5125179;27;20180;-68
2023/03/06 02:49:16;;;;;;;17.50;9.63;;;3.90;99.90;;;;;;5131658;27;20951;-68
2023/03/06 02:51:42;;;;;;;18.63;9.30;;;4.00;99.90;;;;;;5134292;27;20185;-68
2023/03/06 02:54:07;;;;;;;17.67;10.90;;;4.00;99.90;;;;;;5133211;27;20255;-68
2023/03/06 02:56:33;;;;;;;17.03;10.53;;;4.00;99.90;;;;;;5133159;27;20645;-68
2023/03/06 02:58:58;;;;;;;16.67;10.67;;;3.90;99.90;;;;;;5132796;27;20160;-68
2023/03/06 03:01:24;;;;;;;14.97;9.87;;;4.00;99.90;;;;;;5133062;27;20647;-68
2023/03/06 03:03:50;;;;;;;18.23;11.57;;;4.00;99.90;;;;;;5132316;27;20179;-69
2023/03/06 03:06:15;;;;;;;21.10;12.53;;;4.10;99.90;;;;;;5113440;28;20168;-68
2023/03/06 03:08:41;;;;;;;16.30;10.20;;;4.20;99.90;;;;;;5111997;28;20192;-68
2023/03/06 03:11:08;;;;;;;17.53;9.33;;;4.10;99.90;;;;;;5124521;27;20196;-69
2023/03/06 03:13:33;;;;;;;21.53;11.17;;;4.10;99.90;;;;;;5146863;27;20175;-68
2023/03/06 03:16:05;;;;;;;22.50;10.13;;;4.10;99.90;;;;;;5153729;27;20393;-69
2023/03/06 03:18:31;;;;;;;20.33;10.93;;;4.10;99.90;;;;;;5154343;27;20220;-68
2023/03/06 03:20:57;;;;;;;20.10;10.77;;;4.00;99.90;;;;;;5155346;27;20421;-68
2023/03/06 03:23:23;;;;;;;22.00;12.00;;;4.10;99.90;;;;;;5154755;27;20385;-68
2023/03/06 03:25:49;;;;;;;20.33;13.20;;;4.00;99.90;;;;;;5153546;27;20174;-68
2023/03/06 03:28:14;;;;;;;20.23;11.77;;;4.10;99.90;;;;;;5153171;27;20401;-69
2023/03/06 03:30:41;;;;;;;21.13;10.90;;;4.10;99.90;;;;;;5153339;27;20232;-68
2023/03/06 03:33:07;;;;;;;16.80;10.37;;;4.10;99.90;;;;;;5154543;27;20393;-68
2023/03/06 03:35:33;;;;;;;16.03;11.37;;;4.10;99.90;;;;;;5154813;27;20403;-68
2023/03/06 03:37:58;;;;;;;19.30;11.50;;;4.10;99.90;;;;;;5154017;27;20899;-68
2023/03/06 03:40:24;;;;;;;20.20;12.20;;;4.00;99.90;;;;;;5156353;27;20183;-69
2023/03/06 03:42:49;;;;;;;27.10;13.30;;;4.00;99.90;;;;;;5134306;27;20232;-68
2023/03/06 03:45:15;;;;;;;19.87;11.57;;;3.90;99.90;;;;;;5132633;28;20287;-68
2023/03/06 03:47:41;;;;;;;15.13;9.70;;;4.00;99.90;;;;;;5132376;27;20597;-69
2023/03/06 03:50:07;;;;;;;18.37;10.83;;;4.00;99.90;;;;;;5133220;28;20273;-68
2023/03/06 03:52:32;;;;;;;21.33;11.63;;;4.00;99.90;;;;;;5135396;27;20707;-68
2023/03/06 03:54:58;;;;;;;19.97;10.30;;;4.10;99.90;;;;;;5134716;28;20409;-68
2023/03/06 03:57:24;;;;;;;23.23;12.90;;;4.20;99.90;;;;;;5134557;27;20157;-68
2023/03/06 03:59:49;;;;;;;33.20;14.00;;;4.20;99.90;;;;;;5126971;28;20176;-68
2023/03/06 04:02:15;;;;;;;18.53;10.80;;;4.10;99.90;;;;;;5134397;27;20168;-68
2023/03/06 04:04:41;;;;;;;17.67;10.37;;;4.00;99.90;;;;;;5125256;27;20165;-68
2023/03/06 04:07:07;;;;;;;27.40;11.30;;;4.10;99.90;;;;;;5113602;28;20408;-68
2023/03/06 04:09:32;;;;;;;21.70;11.80;;;4.10;99.90;;;;;;5113984;28;20200;-69
2023/03/06 04:11:58;;;;;;;24.43;13.57;;;4.10;99.90;;;;;;5113603;28;20605;-67
2023/03/06 04:14:23;;;;;;;21.30;12.40;;;4.10;99.90;;;;;;5114478;28;20180;-68
2023/03/06 04:16:49;;;;;;;19.43;11.50;;;4.10;99.90;;;;;;5114605;28;20191;-69
2023/03/06 04:19:14;;;;;;;19.07;11.00;;;4.00;99.90;;;;;;5117485;28;20233;-68
2023/03/06 04:21:40;;;;;;;16.50;11.17;;;3.90;99.90;;;;;;5121691;27;20256;-68
2023/03/06 04:24:06;;;;;;;20.27;12.20;;;3.90;99.90;;;;;;5149438;27;20197;-68
2023/03/06 04:26:31;;;;;;;16.17;10.77;;;3.90;99.90;;;;;;5138486;27;20168;-68
2023/03/06 04:28:57;;;;;;;18.10;10.70;;;3.90;99.90;;;;;;5138532;27;20449;-69
2023/03/06 04:31:23;;;;;;;20.00;12.37;;;3.90;99.90;;;;;;5124972;27;20551;-67
2023/03/06 04:33:48;;;;;;;20.20;10.17;;;4.00;99.90;;;;;;5117661;28;20172;-68
2023/03/06 04:36:24;;;;;;;17.87;11.40;;;4.00;99.90;;;;;;5117543;28;20165;-68
2023/03/06 04:38:50;;;;;;;24.73;12.47;;;4.10;99.90;;;;;;5117431;28;20164;-67
2023/03/06 04:41:15;;;;;;;24.40;12.50;;;4.20;99.90;;;;;;5117943;28;20900;-67
2023/03/06 04:43:41;;;;;;;24.83;13.03;;;4.10;99.90;;;;;;5117774;28;20161;-68
2023/03/06 04:46:09;;;;;;;21.67;13.33;;;4.20;99.90;;;;;;5117503;28;20165;-68
2023/03/06 04:48:35;;;;;;;18.70;11.20;;;4.10;99.90;;;;;;5117651;28;20188;-68
2023/03/06 04:51:00;;;;;;;16.80;11.63;;;4.20;99.90;;;;;;5123893;27;20436;-68
2023/03/06 04:53:26;;;;;;;21.07;12.47;;;4.20;99.90;;;;;;5138341;27;20160;-68
2023/03/06 04:55:51;;;;;;;22.63;12.33;;;4.20;99.90;;;;;;5138373;27;20164;-69
2023/03/06 04:58:17;;;;;;;25.97;12.23;;;4.00;99.90;;;;;;5138109;27;20189;-68
2023/03/06 05:00:43;;;;;;;18.43;11.30;;;4.10;99.90;;;;;;5126276;27;20678;-69
2023/03/06 05:03:13;;;;;;;21.93;12.70;;;4.10;99.90;;;;;;5117785;28;20190;-69
2023/03/06 05:05:40;;;;;;;26.30;12.30;;;4.00;99.90;;;;;;5117756;28;20641;-68
2023/03/06 05:08:06;;;;;;;19.77;12.13;;;4.10;99.90;;;;;;5117391;28;20407;-68
2023/03/06 05:10:32;;;;;;;20.93;12.07;;;4.20;99.90;;;;;;5117158;28;20461;-68
2023/03/06 05:12:57;;;;;;;25.30;12.43;;;4.10;99.90;;;;;;5117036;28;20441;-67
2023/03/06 05:15:23;;;;;;;22.20;12.80;;;4.10;99.90;;;;;;5117068;28;20406;-68
2023/03/06 05:17:48;;;;;;;32.77;12.80;;;4.00;99.90;;;;;;5116806;28;20574;-68
2023/03/06 05:20:15;;;;;;;20.33;11.87;;;4.10;99.90;;;;;;5117334;28;20646;-68
2023/03/06 05:22:41;;;;;;;20.30;12.80;;;4.10;99.90;;;;;;5117893;28;20165;-69
2023/03/06 05:25:09;;;;;;;22.97;14.23;;;4.20;99.90;;;;;;5118332;28;20478;-68
2023/03/06 05:27:34;;;;;;;23.40;12.70;;;4.20;99.90;;;;;;5116927;27;20414;-69
2023/03/06 05:30:00;;;;;;;21.60;11.70;;;4.30;99.90;;;;;;5119829;27;20883;-68
2023/03/06 05:32:26;;;;;;;24.77;13.10;;;4.30;99.90;;;;;;5117253;28;20175;-68
2023/03/06 05:34:51;;;;;;;21.40;13.80;;;4.20;99.90;;;;;;5145072;27;20183;-68
2023/03/06 05:37:17;;;;;;;21.30;13.27;;;4.30;99.90;;;;;;5136786;27;20217;-69
2023/03/06 05:39:43;;;;;;;19.30;11.80;;;4.30;99.90;;;;;;5137604;27;20248;-69
2023/03/06 05:42:08;;;;;;;20.63;13.20;;;4.30;99.90;;;;;;5137808;27;20164;-68
2023/03/06 05:44:35;;;;;;;22.80;11.73;;;4.40;99.90;;;;;;5137744;27;20202;-67
2023/03/06 05:47:01;;;;;;;20.70;13.43;;;4.40;99.90;;;;;;5137429;27;20168;-68
2023/03/06 05:49:31;;;;;;;19.20;11.27;;;4.50;99.90;;;;;;5137761;27;20449;-68
2023/03/06 05:51:57;;;;;;;22.40;13.00;;;4.50;99.90;;;;;;5136833;27;20446;-67
2023/03/06 05:54:23;;;;;;;21.27;11.37;;;4.50;99.90;;;;;;5136166;27;20930;-67
2023/03/06 05:56:49;;;;;;;19.70;10.97;;;4.50;99.90;;;;;;5137236;27;20156;-67
2023/03/06 05:59:15;;;;;;;20.50;11.17;;;4.60;99.90;;;;;;5125826;27;20418;-68
2023/03/06 06:01:40;;;;;;;22.20;11.97;;;4.60;99.90;;;;;;5116510;28;20438;-69
2023/03/06 06:04:06;;;;;;;22.70;11.90;;;4.60;99.90;;;;;;5120779;27;20176;-67
2023/03/06 06:06:32;;;;;;;25.47;13.73;;;4.60;99.90;;;;;;5137103;27;20172;-68
2023/03/06 06:08:57;;;;;;;23.57;13.43;;;4.40;99.90;;;;;;5135229;27;20224;-67
2023/03/06 06:11:23;;;;;;;17.87;10.67;;;4.40;99.90;;;;;;5136573;27;20226;-67
2023/03/06 06:13:48;;;;;;;18.70;10.03;;;4.50;99.90;;;;;;5136479;27;20543;-67
2023/03/06 06:16:15;;;;;;;25.50;13.40;;;4.40;99.90;;;;;;5136486;27;20538;-68
2023/03/06 06:18:41;;;;;;;17.30;10.30;;;4.40;99.90;;;;;;5125684;27;20171;-68
2023/03/06 06:21:08;;;;;;;23.70;12.50;;;4.40;99.90;;;;;;5136577;27;20824;-67
2023/03/06 06:23:34;;;;;;;24.03;12.30;;;4.40;99.90;;;;;;5135159;27;20466;-67
2023/03/06 06:26:05;;;;;;;26.57;12.50;;;4.40;99.90;;;;;;5136487;27;20405;-68
2023/03/06 06:28:32;;;;;;;16.27;9.70;;;4.40;99.90;;;;;;5136103;27;20172;-67
2023/03/06 06:30:57;;;;;;;17.60;10.63;;;4.40;99.90;;;;;;5136237;27;20410;-67
2023/03/06 06:33:23;;;;;;;21.77;13.90;;;4.30;99.90;;;;;;5135921;27;20408;-68
2023/03/06 06:35:49;;;;;;;18.90;11.17;;;4.20;99.90;;;;;;5135725;27;20576;-67
2023/03/06 06:38:15;;;;;;;21.93;11.83;;;4.20;99.90;;;;;;5136018;27;20160;-68
2023/03/06 06:40:41;;;;;;;24.23;13.20;;;4.20;99.90;;;;;;5135054;27;20447;-68
2023/03/06 06:43:06;;;;;;;22.20;12.80;;;4.20;99.90;;;;;;5134513;27;20413;-67
2023/03/06 06:45:32;;;;;;;24.97;12.23;;;4.20;99.90;;;;;;5140949;27;20171;-68
2023/03/06 06:47:57;;;;;;;23.20;14.13;;;4.10;99.90;;;;;;5129182;27;20662;-67
2023/03/06 06:50:23;;;;;;;26.93;13.67;;;4.20;99.90;;;;;;5114465;27;20196;-68
2023/03/06 06:52:48;;;;;;;28.83;11.87;;;4.10;99.90;;;;;;5113607;28;20168;-67
2023/03/06 06:55:14;;;;;;;19.40;11.77;;;4.20;99.90;;;;;;5114698;28;20164;-67
2023/03/06 06:57:41;;;;;;;24.03;11.27;;;4.30;99.90;;;;;;5111223;28;20165;-67
2023/03/06 07:00:07;;;;;;;23.73;13.27;;;4.40;99.90;;;;;;5114076;28;20191;-67
2023/03/06 07:02:33;;;;;;;19.63;11.00;;;4.40;99.90;;;;;;5114421;28;20490;-68
2023/03/06 07:04:59;;;;;;;21.70;12.07;;;4.50;99.90;;;;;;5125995;27;20413;-67
2023/03/06 07:07:24;;;;;;;29.70;11.90;;;4.60;99.90;;;;;;5135479;27;20247;-67
2023/03/06 07:09:50;;;;;;;17.33;10.80;;;4.70;99.90;;;;;;5134070;27;20562;-68
2023/03/06 07:12:16;;;;;;;20.30;11.80;;;4.80;99.90;;;;;;5134840;27;20168;-68
2023/03/06 07:14:41;;;;;;;19.63;12.27;;;4.90;99.90;;;;;;5135117;27;20196;-67
2023/03/06 07:17:08;;;;;;;27.00;11.70;;;5.00;99.90;;;;;;5128278;27;20399;-68
2023/03/06 07:19:34;;;;;;;23.60;12.10;;;5.10;99.90;;;;;;5114203;28;20215;-68
2023/03/06 07:22:00;;;;;;;20.73;12.93;;;5.10;99.90;;;;;;5114437;28;20786;-68
2023/03/06 07:24:26;;;;;;;24.07;13.70;;;5.20;99.90;;;;;;5114675;28;20410;-68
2023/03/06 07:26:51;;;;;;;27.00;14.20;;;5.20;99.90;;;;;;5114288;28;20406;-68
2023/03/06 07:29:17;;;;;;;23.73;12.87;;;5.20;99.90;;;;;;5114507;28;20511;-68
2023/03/06 07:31:43;;;;;;;28.67;13.73;;;5.20;99.90;;;;;;5114370;28;20226;-68
2023/03/06 07:34:12;;;;;;;26.33;12.10;;;5.20;99.90;;;;;;5114450;28;20654;-67
2023/03/06 07:36:39;;;;;;;18.87;11.17;;;5.20;99.90;;;;;;5114240;28;20161;-67
2023/03/06 07:39:05;;;;;;;22.17;12.10;;;5.20;99.90;;;;;;5114370;28;20909;-67
2023/03/06 07:41:31;;;;;;;20.83;12.60;;;5.10;99.90;;;;;;5114525;28;20453;-68
2023/03/06 07:43:57;;;;;;;24.90;13.53;;;5.20;99.90;;;;;;5114664;28;20424;-67
2023/03/06 07:46:22;;;;;;;27.20;15.10;;;5.30;99.90;;;;;;5115329;28;20644;-68
2023/03/06 07:48:47;;;;;;;23.07;12.23;;;5.30;99.90;;;;;;5112721;28;20183;-67
2023/03/06 07:51:16;;;;;;;19.37;12.57;;;5.50;99.90;;;;;;5137591;27;20228;-68
2023/03/06 07:53:43;;;;;;;27.80;13.80;;;5.50;99.90;;;;;;5143938;27;20168;-67
2023/03/06 07:56:10;;;;;;;25.70;13.03;;;5.60;99.90;;;;;;5139929;27;20505;-68
2023/03/06 07:58:37;;;;;;;23.03;12.10;;;5.70;99.90;;;;;;5139338;27;20398;-68
2023/03/06 08:01:11;;;;;;;25.37;14.27;;;5.90;99.90;;;;;;5138397;27;20421;-67
2023/03/06 08:03:37;;;;;;;32.13;15.00;;;6.20;99.90;;;;;;5139377;27;20903;-67
2023/03/06 08:06:14;;;;;;;20.50;12.27;;;6.40;99.90;;;;;;5118282;28;20427;-68
2023/03/06 08:08:42;;;;;;;31.60;14.10;;;6.60;99.90;;;;;;5118321;28;20530;-67
2023/03/06 08:11:09;;;;;;;25.83;13.03;;;6.80;99.90;;;;;;5117925;28;20418;-68
2023/03/06 08:13:34;;;;;;;21.30;13.10;;;7.10;99.90;;;;;;5118174;28;20418;-68
2023/03/06 08:16:00;;;;;;;24.40;13.70;;;7.30;99.90;;;;;;5118241;28;20922;-68
2023/03/06 08:18:27;;;;;;;26.97;14.23;;;7.80;99.90;;;;;;5124488;27;20165;-67
2023/03/06 08:21:05;;;;;;;28.53;16.53;;;8.00;99.90;;;;;;5117170;28;20264;-68
2023/03/06 08:23:32;;;;;;;25.90;14.47;;;8.30;99.90;;;;;;5117709;28;20401;-68
2023/03/06 08:25:59;;;;;;;23.77;14.90;;;8.40;99.90;;;;;;5117615;28;20407;-68
2023/03/06 08:28:25;;;;;;;21.10;13.53;;;8.50;99.90;;;;;;5117425;28;20747;-67
2023/03/06 08:30:51;;;;;;;26.70;14.83;;;8.60;99.90;;;;;;5116528;28;20454;-67
2023/03/06 08:33:16;;;;;;;23.33;13.40;;;8.50;99.90;;;;;;5117374;28;20406;-68
2023/03/06 08:35:42;;;;;;;22.70;12.30;;;8.60;99.90;;;;;;5116922;28;20165;-68
2023/03/06 08:38:07;;;;;;;17.67;12.90;;;8.70;99.90;;;;;;5117374;28;20168;-68
2023/03/06 08:40:33;;;;;;;21.60;11.90;;;8.60;99.90;;;;;;5117205;28;20181;-68
2023/03/06 08:42:58;;;;;;;20.13;11.63;;;8.30;99.90;;;;;;5116092;28;20173;-68
2023/03/06 08:45:24;;;;;;;23.20;12.00;;;8.30;99.90;;;;;;5117197;28;20249;-68
2023/03/06 08:47:49;;;;;;;18.00;12.20;;;8.10;99.90;;;;;;5117876;27;20259;-69
2023/03/06 08:50:15;;;;;;;18.50;9.90;;;8.10;99.90;;;;;;5116814;28;20207;-68
2023/03/06 08:52:41;;;;;;;21.73;13.30;;;7.80;99.90;;;;;;5116098;28;20172;-68
2023/03/06 08:55:07;;;;;;;16.73;10.77;;;7.70;99.90;;;;;;5116785;28;20237;-68
2023/03/06 08:57:32;;;;;;;17.10;11.03;;;7.30;99.90;;;;;;5116866;28;20253;-67
2023/03/06 08:59:58;;;;;;;21.63;12.00;;;7.10;99.90;;;;;;5117026;28;20434;-68
2023/03/06 09:02:23;;;;;;;19.00;11.00;;;7.10;99.90;;;;;;5130760;27;20254;-67
2023/03/06 09:04:49;;;;;;;23.17;12.00;;;7.00;99.90;;;;;;5133393;27;20639;-68
2023/03/06 09:07:14;;;;;;;23.13;11.47;;;6.80;99.90;;;;;;5117075;28;20218;-68
2023/03/06 09:09:40;;;;;;;20.80;11.73;;;6.80;99.90;;;;;;5116960;28;20201;-67
2023/03/06 09:12:05;;;;;;;20.10;11.93;;;6.60;99.90;;;;;;5117070;28;20535;-67
2023/03/06 09:14:31;;;;;;;23.40;11.80;;;6.70;99.90;;;;;;5116042;28;20184;-67
2023/03/06 09:16:56;;;;;;;15.13;11.00;;;6.90;99.90;;;;;;5116603;28;20241;-68
2023/03/06 09:19:22;;;;;;;14.90;9.80;;;7.30;99.90;;;;;;5116883;28;20559;-68
2023/03/06 09:21:48;;;;;;;19.20;11.50;;;7.80;99.90;;;;;;5116598;28;20192;-68
2023/03/06 09:24:14;;;;;;;16.57;11.50;;;8.60;99.90;;;;;;5116342;28;20210;-69
2023/03/06 09:26:39;;;;;;;15.60;12.67;;;10.10;99.90;;;;;;5115527;28;20263;-68
2023/03/06 09:29:05;;;;;;;18.80;11.93;;;11.90;99.90;;;;;;5115228;28;20528;-68
2023/03/06 09:31:31;;;;;;;19.90;13.20;;;12.80;99.90;;;;;;5115228;28;20180;-68
2023/03/06 09:33:57;;;;;;;17.27;11.43;;;13.40;99.90;;;;;;5114960;28;20734;-68
2023/03/06 09:36:23;;;;;;;16.60;11.40;;;13.60;96.40;;;;;;5115087;28;20652;-68
2023/03/06 09:38:49;;;;;;;23.87;13.70;;;12.90;88.30;;;;;;5115296;28;20695;-68
2023/03/06 09:41:29;;;;;;;21.63;13.57;;;11.90;87.60;;;;;;5115742;28;20422;-68
2023/03/06 09:44:13;;;;;;;18.40;12.90;;;11.10;91.30;;;;;;5114022;28;20410;-68
2023/03/06 09:46:56;;;;;;;26.00;13.03;;;10.20;94.70;;;;;;5116425;27;20415;-68
2023/03/06 09:49:29;;;;;;;21.53;11.73;;;9.30;99.90;;;;;;5115250;28;20971;-68
2023/03/06 09:52:30;;;;;;;21.07;12.27;;;8.80;99.90;;;;;;5115610;28;20498;-68
2023/03/06 09:55:10;;;;;;;20.30;13.40;;;8.50;99.90;;;;;;5115899;28;21028;-68
2023/03/06 09:57:41;;;;;;;19.40;12.40;;;8.00;99.90;;;;;;5114721;28;20403;-68
2023/03/06 10:00:15;;;;;;;22.10;12.20;;;8.10;99.90;;;;;;5115199;28;20859;-68
2023/03/06 10:02:59;;;;;;;22.10;11.30;;;8.40;99.90;;;;;;5115198;28;20390;-68
2023/03/06 10:05:31;;;;;;;25.53;14.40;;;8.80;99.90;;;;;;5113558;28;20406;-68
2023/03/06 10:08:04;;;;;;;16.30;11.87;;;9.20;99.90;;;;;;5113338;28;20501;-68
2023/03/06 10:10:49;;;;;;;22.83;11.40;;;9.40;99.90;;;;;;5114849;27;20510;-68
2023/03/06 10:13:47;;;;;;;23.77;12.60;;;9.70;99.90;;;;;;5143409;27;20418;-68
2023/03/06 10:16:31;;;;;;;20.50;11.77;;;9.90;99.90;;;;;;5122345;27;20734;-68
2023/03/06 10:19:12;;;;;;;16.30;10.77;;;10.20;99.90;;;;;;5113123;28;20390;-68
2023/03/06 10:21:56;;;;;;;21.80;12.93;;;10.30;99.90;;;;;;5113188;28;20517;-68
2023/03/06 10:24:44;;;;;;;17.33;11.13;;;10.00;99.90;;;;;;5112016;28;20507;-68
2023/03/06 10:27:16;;;;;;;19.33;11.03;;;9.90;99.90;;;;;;5112838;28;20402;-68
2023/03/06 10:30:05;;;;;;;15.43;10.50;;;10.00;99.90;;;;;;5113039;28;20450;-68
2023/03/06 10:32:54;;;;;;;20.90;12.30;;;10.10;99.90;;;;;;5071519;28;20498;-68
2023/03/06 10:35:31;;;;;;;21.33;11.20;;;9.80;99.90;;;;;;5112942;28;20883;-68
2023/03/06 10:38:24;;;;;;;12.50;9.50;;;9.60;99.90;;;;;;5112852;28;20426;-68
2023/03/06 10:41:09;;;;;;;15.73;11.30;;;9.10;99.90;;;;;;5112170;28;20435;-69
2023/03/06 10:43:36;;;;;;;16.60;10.10;;;8.80;99.90;;;;;;5112787;28;20394;-68
2023/03/06 10:46:04;;;;;;;16.63;11.53;;;8.50;99.90;;;;;;5114149;27;20553;-69
2023/03/06 10:48:34;;;;;;;16.50;10.10;;;8.40;99.90;;;;;;5113389;28;20482;-68
2023/03/06 10:51:23;;;;;;;14.83;8.63;;;8.40;99.90;;;;;;5114753;28;20442;-68
2023/03/06 10:53:54;;;;;;;17.80;10.90;;;8.10;99.90;;;;;;5114077;28;20386;-68
2023/03/06 10:56:36;;;;;;;17.87;10.70;;;8.00;99.90;;;;;;5114877;27;20409;-69
2023/03/06 10:59:12;;;;;;;16.63;10.00;;;7.90;99.90;;;;;;5112470;28;20489;-69
2023/03/06 11:01:46;;;;;;;20.40;10.37;;;7.80;99.90;;;;;;5112585;28;20453;-68
2023/03/06 11:04:24;;;;;;;23.27;13.00;;;7.60;99.90;;;;;;5111324;28;20439;-68
2023/03/06 11:07:35;;;;;;;20.23;12.27;;;7.40;99.90;;;;;;5112358;28;20398;-68
2023/03/06 11:10:06;;;;;;;18.23;11.10;;;7.30;99.90;;;;;;5108180;28;20879;-68
2023/03/06 11:12:34;;;;;;;15.67;10.97;;;7.10;99.90;;;;;;5111058;28;20423;-68
2023/03/06 11:15:09;;;;;;;16.83;10.03;;;7.00;99.90;;;;;;5118043;27;20406;-68
2023/03/06 11:17:56;;;;;;;14.33;8.50;;;7.00;99.90;;;;;;5137007;27;20415;-68
2023/03/06 11:20:30;;;;;;;13.03;8.40;;;7.30;99.90;;;;;;5084086;28;20472;-68
2023/03/06 11:23:06;;;;;;;20.73;10.33;;;7.60;99.90;;;;;;5112383;28;20493;-67
2023/03/06 11:25:37;;;;;;;15.03;9.67;;;7.40;99.90;;;;;;5114347;28;20427;-67
2023/03/06 11:28:30;;;;;;;15.40;9.07;;;7.50;99.90;;;;;;5118915;28;20459;-69
2023/03/06 11:31:08;;;;;;;17.20;10.00;;;7.50;99.90;;;;;;5110449;28;20474;-68
2023/03/06 11:33:41;;;;;;;13.63;9.27;;;7.60;99.90;;;;;;5119965;27;20497;-68
2023/03/06 11:36:25;;;;;;;19.30;10.33;;;7.70;99.90;;;;;;5118859;28;20497;-68
2023/03/06 11:38:52;;;;;;;19.40;9.70;;;7.80;99.90;;;;;;5119548;27;20985;-68
2023/03/06 11:41:39;;;;;;;12.37;8.47;;;7.90;99.90;;;;;;5118943;27;20483;-68
2023/03/06 11:44:23;;;;;;;13.63;8.73;;;8.00;99.90;;;;;;5118993;28;20406;-68
2023/03/06 11:46:57;;;;;;;11.57;7.90;;;8.00;99.90;;;;;;5118987;27;20432;-67
2023/03/06 11:49:29;;;;;;;14.20;8.53;;;8.30;99.90;;;;;;5118985;27;20446;-68
2023/03/06 11:51:59;;;;;;;11.07;8.47;;;8.50;99.90;;;;;;5118922;27;20433;-68
2023/03/06 11:54:25;;;;;;;15.53;8.87;;;8.90;99.90;;;;;;5118835;27;20409;-68
2023/03/06 11:57:17;;;;;;;13.03;9.17;;;8.90;99.90;;;;;;5118534;28;20390;-68
2023/03/06 12:00:16;;;;;;;14.07;9.13;;;8.90;99.90;;;;;;5115576;28;20181;-68
2023/03/06 12:03:20;;;;;;;13.00;8.90;;;8.90;99.90;;;;;;5114726;28;20433;-68
2023/03/06 12:06:01;;;;;;;14.43;8.87;;;8.90;99.90;;;;;;5038050;28;20516;-68
2023/03/06 12:08:34;;;;;;;16.80;12.57;;;8.90;99.90;;;;;;5055333;28;20771;-68
2023/03/06 12:11:10;;;;;;;13.00;8.30;;;8.90;99.90;;;;;;5095010;27;20528;-68
2023/03/06 12:13:48;;;;;;;12.83;7.83;;;8.90;99.90;;;;;;5118830;27;20512;-68
2023/03/06 12:16:52;;;;;;;15.73;7.77;;;8.80;99.90;;;;;;5119983;27;21010;-68
2023/03/06 12:19:32;;;;;;;9.60;7.40;;;8.80;99.90;;;;;;5045955;27;20413;-68
2023/03/06 12:22:17;;;;;;;12.47;7.87;;;8.80;99.90;;;;;;5119980;28;20478;-67
2023/03/06 12:24:56;;;;;;;12.03;6.90;;;8.80;99.90;;;;;;5119239;28;20849;-68
2023/03/06 12:27:42;;;;;;;13.83;8.07;;;8.80;99.90;;;;;;5118317;28;20440;-68
2023/03/06 12:30:23;;;;;;;11.57;7.83;;;8.90;99.90;;;;;;5150422;27;21034;-68
2023/03/06 12:33:05;;;;;;;18.43;11.70;;;8.60;99.90;;;;;;5139261;27;20425;-68
2023/03/06 12:36:12;;;;;;;11.73;6.40;;;8.40;99.90;;;;;;5139141;27;20401;-69
2023/03/06 12:38:50;;;;;;;11.93;7.30;;;8.50;99.90;;;;;;5114667;28;20490;-68
2023/03/06 12:41:29;;;;;;;14.07;6.60;;;8.60;99.90;;;;;;5117211;28;20466;-68
2023/03/06 12:44:16;;;;;;;9.67;7.20;;;8.60;99.90;;;;;;5115986;28;20390;-69
2023/03/06 12:46:52;;;;;;;13.03;6.13;;;8.50;99.90;;;;;;5115182;27;20485;-68
2023/03/06 12:49:30;;;;;;;8.40;5.87;;;8.50;99.90;;;;;;5115136;28;20540;-68
2023/03/06 12:51:58;;;;;;;10.50;5.97;;;8.60;99.90;;;;;;5115121;28;20410;-67
2023/03/06 12:54:27;;;;;;;7.43;5.77;;;8.30;99.90;;;;;;5115037;28;20399;-68